sensor_id;sensor_type;location;lat;lon;timestamp;pressure;altitude;pressure_sealevel;temperature;humidity
70555;BME280;58104;52.744;15.242;2023-03-01T00:01:41;102361.25;;;18.24;39.82
70555;BME280;58104;52.744;15.242;2023-03-01T00:04:06;102357.87;;;18.24;39.93
70555;BME280;58104;52.744;15.242;2023-03-01T00:06:32;102359.55;;;18.24;39.89
70555;BME280;58104;52.744;15.242;2023-03-01T00:08:57;102356.09;;;18.25;39.92
70555;BME280;58104;52.744;15.242;2023-03-01T00:11:25;102356.35;;;18.24;39.95
70555;BME280;58104;52.744;15.242;2023-03-01T00:13:49;102361.56;;;18.26;40.11
70555;BME280;58104;52.744;15.242;2023-03-01T00:16:16;102360.76;;;18.25;40.17
70555;BME280;58104;52.744;15.242;2023-03-01T00:18:39;102357.79;;;18.25;40.32
70555;BME280;58104;52.744;15.242;2023-03-01T00:21:05;102360.75;;;18.11;40.34
70555;BME280;58104;52.744;15.242;2023-03-01T00:23:30;102357.44;;;18.23;40.42
70555;BME280;58104;52.744;15.242;2023-03-01T00:25:55;102348.77;;;18.20;40.40
70555;BME280;58104;52.744;15.242;2023-03-01T00:28:21;102350.50;;;18.25;40.40
70555;BME280;58104;52.744;15.242;2023-03-01T00:30:46;102353.35;;;18.17;40.57
70555;BME280;58104;52.744;15.242;2023-03-01T00:33:11;102350.89;;;18.24;40.75
70555;BME280;58104;52.744;15.242;2023-03-01T00:35:37;102349.58;;;18.24;40.65
70555;BME280;58104;52.744;15.242;2023-03-01T00:38:02;102344.97;;;18.25;40.65
70555;BME280;58104;52.744;15.242;2023-03-01T00:40:29;102337.64;;;18.23;40.77
70555;BME280;58104;52.744;15.242;2023-03-01T00:42:53;102332.59;;;18.12;40.92
70555;BME280;58104;52.744;15.242;2023-03-01T00:45:18;102327.00;;;18.31;40.67
70555;BME280;58104;52.744;15.242;2023-03-01T00:47:44;102328.75;;;18.35;40.81
70555;BME280;58104;52.744;15.242;2023-03-01T00:50:10;102325.79;;;18.24;41.00
70555;BME280;58104;52.744;15.242;2023-03-01T00:52:35;102325.24;;;18.22;41.09
70555;BME280;58104;52.744;15.242;2023-03-01T00:55:00;102324.34;;;18.22;41.64
70555;BME280;58104;52.744;15.242;2023-03-01T00:57:25;102320.93;;;18.27;41.47
70555;BME280;58104;52.744;15.242;2023-03-01T00:59:50;102320.56;;;18.23;41.63
70555;BME280;58104;52.744;15.242;2023-03-01T01:02:16;102317.53;;;18.26;41.65
70555;BME280;58104;52.744;15.242;2023-03-01T01:04:41;102310.04;;;18.25;41.63
70555;BME280;58104;52.744;15.242;2023-03-01T01:07:07;102307.01;;;18.23;41.71
70555;BME280;58104;52.744;15.242;2023-03-01T01:09:32;102308.79;;;18.26;41.74
70555;BME280;58104;52.744;15.242;2023-03-01T01:11:58;102307.83;;;18.22;41.67
70555;BME280;58104;52.744;15.242;2023-03-01T01:14:23;102307.37;;;18.28;41.83
70555;BME280;58104;52.744;15.242;2023-03-01T01:16:48;102311.56;;;18.30;41.78
70555;BME280;58104;52.744;15.242;2023-03-01T01:19:14;102312.07;;;18.23;41.90
70555;BME280;58104;52.744;15.242;2023-03-01T01:21:40;102316.21;;;18.23;41.86
70555;BME280;58104;52.744;15.242;2023-03-01T01:24:05;102318.00;;;18.28;41.93
70555;BME280;58104;52.744;15.242;2023-03-01T01:26:33;102320.08;;;18.31;41.89
70555;BME280;58104;52.744;15.242;2023-03-01T01:28:56;102321.37;;;18.28;41.88
70555;BME280;58104;52.744;15.242;2023-03-01T01:31:22;102324.79;;;18.26;41.95
70555;BME280;58104;52.744;15.242;2023-03-01T01:33:46;102325.45;;;18.26;41.98
70555;BME280;58104;52.744;15.242;2023-03-01T01:36:12;102324.91;;;18.25;42.06
70555;BME280;58104;52.744;15.242;2023-03-01T01:38:38;102321.77;;;18.24;42.18
70555;BME280;58104;52.744;15.242;2023-03-01T01:41:04;102320.38;;;18.25;42.07
70555;BME280;58104;52.744;15.242;2023-03-01T01:43:30;102322.23;;;18.24;41.98
70555;BME280;58104;52.744;15.242;2023-03-01T01:45:55;102321.54;;;18.34;42.05
70555;BME280;58104;52.744;15.242;2023-03-01T01:48:22;102316.15;;;18.32;42.16
70555;BME280;58104;52.744;15.242;2023-03-01T01:50:44;102311.64;;;18.32;42.16
70555;BME280;58104;52.744;15.242;2023-03-01T01:53:13;102307.67;;;18.30;42.23
70555;BME280;58104;52.744;15.242;2023-03-01T01:55:36;102308.48;;;18.34;42.37
70555;BME280;58104;52.744;15.242;2023-03-01T01:58:03;102310.15;;;18.36;42.41
70555;BME280;58104;52.744;15.242;2023-03-01T02:00:28;102313.52;;;18.31;42.46
70555;BME280;58104;52.744;15.242;2023-03-01T02:02:56;102314.31;;;18.31;42.72
70555;BME280;58104;52.744;15.242;2023-03-01T02:05:20;102308.86;;;18.30;42.61
70555;BME280;58104;52.744;15.242;2023-03-01T02:07:42;102306.93;;;18.34;42.64
70555;BME280;58104;52.744;15.242;2023-03-01T02:10:09;102307.25;;;18.26;42.90
70555;BME280;58104;52.744;15.242;2023-03-01T02:12:33;102309.30;;;18.33;43.01
70555;BME280;58104;52.744;15.242;2023-03-01T02:14:58;102308.18;;;18.26;42.99
70555;BME280;58104;52.744;15.242;2023-03-01T02:17:24;102304.69;;;18.22;43.15
70555;BME280;58104;52.744;15.242;2023-03-01T02:19:57;102302.02;;;18.29;43.30
70555;BME280;58104;52.744;15.242;2023-03-01T02:22:22;102298.79;;;18.33;42.77
70555;BME280;58104;52.744;15.242;2023-03-01T02:24:45;102294.04;;;18.29;42.71
70555;BME280;58104;52.744;15.242;2023-03-01T02:27:05;102291.77;;;18.26;42.67
70555;BME280;58104;52.744;15.242;2023-03-01T02:29:30;102290.18;;;18.30;42.78
70555;BME280;58104;52.744;15.242;2023-03-01T02:31:58;102283.80;;;18.25;42.85
70555;BME280;58104;52.744;15.242;2023-03-01T02:34:23;102280.63;;;18.28;42.95
70555;BME280;58104;52.744;15.242;2023-03-01T02:36:49;102279.03;;;18.30;42.94
70555;BME280;58104;52.744;15.242;2023-03-01T02:39:15;102274.51;;;18.28;43.03
70555;BME280;58104;52.744;15.242;2023-03-01T02:41:38;102274.48;;;18.18;43.14
70555;BME280;58104;52.744;15.242;2023-03-01T02:44:03;102273.27;;;18.21;43.14
70555;BME280;58104;52.744;15.242;2023-03-01T02:46:28;102269.39;;;18.19;43.22
70555;BME280;58104;52.744;15.242;2023-03-01T02:48:56;102269.47;;;18.18;43.16
70555;BME280;58104;52.744;15.242;2023-03-01T02:51:31;102263.54;;;18.22;43.27
70555;BME280;58104;52.744;15.242;2023-03-01T02:53:53;102256.79;;;18.18;43.18
70555;BME280;58104;52.744;15.242;2023-03-01T02:56:10;102257.72;;;18.20;43.29
70555;BME280;58104;52.744;15.242;2023-03-01T02:58:35;102255.24;;;18.18;43.26
70555;BME280;58104;52.744;15.242;2023-03-01T03:01:00;102251.82;;;18.14;43.35
70555;BME280;58104;52.744;15.242;2023-03-01T03:03:26;102252.18;;;18.18;43.31
70555;BME280;58104;52.744;15.242;2023-03-01T03:05:51;102250.74;;;18.15;43.47
70555;BME280;58104;52.744;15.242;2023-03-01T03:08:16;102249.93;;;18.16;43.38
70555;BME280;58104;52.744;15.242;2023-03-01T03:10:42;102250.20;;;18.18;43.37
70555;BME280;58104;52.744;15.242;2023-03-01T03:13:09;102248.65;;;18.18;43.63
70555;BME280;58104;52.744;15.242;2023-03-01T03:15:33;102254.06;;;18.18;43.55
70555;BME280;58104;52.744;15.242;2023-03-01T03:17:58;102254.81;;;18.19;43.46
70555;BME280;58104;52.744;15.242;2023-03-01T03:20:25;102252.73;;;18.18;43.63
70555;BME280;58104;52.744;15.242;2023-03-01T03:22:50;102250.15;;;18.14;43.63
70555;BME280;58104;52.744;15.242;2023-03-01T03:25:14;102245.74;;;18.08;43.80
70555;BME280;58104;52.744;15.242;2023-03-01T03:27:40;102242.62;;;18.19;43.72
70555;BME280;58104;52.744;15.242;2023-03-01T03:30:06;102241.30;;;18.12;43.71
70555;BME280;58104;52.744;15.242;2023-03-01T03:32:30;102241.85;;;18.15;43.70
70555;BME280;58104;52.744;15.242;2023-03-01T03:34:55;102240.53;;;18.19;43.72
70555;BME280;58104;52.744;15.242;2023-03-01T03:37:21;102235.45;;;18.11;43.76
70555;BME280;58104;52.744;15.242;2023-03-01T03:39:46;102234.67;;;18.17;43.85
70555;BME280;58104;52.744;15.242;2023-03-01T03:42:11;102230.81;;;18.16;43.94
70555;BME280;58104;52.744;15.242;2023-03-01T03:44:36;102232.32;;;18.20;43.83
70555;BME280;58104;52.744;15.242;2023-03-01T03:47:02;102229.32;;;18.18;43.95
70555;BME280;58104;52.744;15.242;2023-03-01T03:49:27;102227.52;;;18.22;43.97
70555;BME280;58104;52.744;15.242;2023-03-01T03:51:52;102227.44;;;18.17;44.06
70555;BME280;58104;52.744;15.242;2023-03-01T03:54:18;102232.98;;;18.15;44.18
70555;BME280;58104;52.744;15.242;2023-03-01T03:56:43;102231.66;;;18.12;44.14
70555;BME280;58104;52.744;15.242;2023-03-01T03:59:08;102231.61;;;18.10;44.19
70555;BME280;58104;52.744;15.242;2023-03-01T04:01:33;102226.88;;;18.14;44.14
70555;BME280;58104;52.744;15.242;2023-03-01T04:03:59;102222.58;;;18.17;44.09
70555;BME280;58104;52.744;15.242;2023-03-01T04:06:24;102219.34;;;18.11;44.23
70555;BME280;58104;52.744;15.242;2023-03-01T04:08:50;102220.39;;;18.09;44.41
70555;BME280;58104;52.744;15.242;2023-03-01T04:11:15;102218.64;;;18.21;44.33
70555;BME280;58104;52.744;15.242;2023-03-01T04:13:40;102218.48;;;18.20;44.45
70555;BME280;58104;52.744;15.242;2023-03-01T04:16:06;102216.40;;;18.21;44.34
70555;BME280;58104;52.744;15.242;2023-03-01T04:18:31;102220.05;;;18.23;44.30
70555;BME280;58104;52.744;15.242;2023-03-01T04:20:57;102217.36;;;18.24;44.34
70555;BME280;58104;52.744;15.242;2023-03-01T04:23:22;102214.47;;;18.22;44.35
70555;BME280;58104;52.744;15.242;2023-03-01T04:25:49;102213.83;;;18.20;44.55
70555;BME280;58104;52.744;15.242;2023-03-01T04:28:12;102206.02;;;18.22;44.48
70555;BME280;58104;52.744;15.242;2023-03-01T04:30:38;102197.07;;;18.15;44.43
70555;BME280;58104;52.744;15.242;2023-03-01T04:33:05;102198.33;;;18.14;44.26
70555;BME280;58104;52.744;15.242;2023-03-01T04:35:29;102201.47;;;18.14;44.38
70555;BME280;58104;52.744;15.242;2023-03-01T04:37:54;102200.32;;;18.12;44.40
70555;BME280;58104;52.744;15.242;2023-03-01T04:40:19;102201.31;;;18.20;44.30
70555;BME280;58104;52.744;15.242;2023-03-01T04:42:44;102206.06;;;18.11;44.35
70555;BME280;58104;52.744;15.242;2023-03-01T04:45:10;102201.92;;;18.13;44.34
70555;BME280;58104;52.744;15.242;2023-03-01T04:47:35;102201.46;;;18.10;44.39
70555;BME280;58104;52.744;15.242;2023-03-01T04:50:00;102199.29;;;18.08;44.47
70555;BME280;58104;52.744;15.242;2023-03-01T04:52:26;102199.73;;;18.09;44.46
70555;BME280;58104;52.744;15.242;2023-03-01T04:54:51;102198.03;;;18.07;44.51
70555;BME280;58104;52.744;15.242;2023-03-01T04:57:16;102199.18;;;18.07;44.63
70555;BME280;58104;52.744;15.242;2023-03-01T04:59:41;102199.30;;;18.05;44.61
70555;BME280;58104;52.744;15.242;2023-03-01T05:02:07;102202.95;;;18.01;44.71
70555;BME280;58104;52.744;15.242;2023-03-01T05:04:32;102207.23;;;18.02;44.76
70555;BME280;58104;52.744;15.242;2023-03-01T05:06:57;102206.23;;;17.98;44.87
70555;BME280;58104;52.744;15.242;2023-03-01T05:09:22;102205.49;;;18.00;44.82
70555;BME280;58104;52.744;15.242;2023-03-01T05:11:48;102199.15;;;18.00;44.82
70555;BME280;58104;52.744;15.242;2023-03-01T05:14:13;102197.82;;;18.01;44.76
70555;BME280;58104;52.744;15.242;2023-03-01T05:16:44;102199.06;;;18.14;44.87
70555;BME280;58104;52.744;15.242;2023-03-01T05:19:04;102200.88;;;18.03;44.95
70555;BME280;58104;52.744;15.242;2023-03-01T05:21:29;102200.97;;;18.16;45.04
70555;BME280;58104;52.744;15.242;2023-03-01T05:23:55;102201.47;;;18.14;45.05
70555;BME280;58104;52.744;15.242;2023-03-01T05:26:21;102202.12;;;18.03;45.02
70555;BME280;58104;52.744;15.242;2023-03-01T05:28:46;102206.31;;;18.06;45.02
70555;BME280;58104;52.744;15.242;2023-03-01T05:31:11;102209.18;;;18.12;45.23
70555;BME280;58104;52.744;15.242;2023-03-01T05:33:38;102210.77;;;18.13;45.13
70555;BME280;58104;52.744;15.242;2023-03-01T05:36:04;102214.68;;;18.12;45.19
70555;BME280;58104;52.744;15.242;2023-03-01T05:38:28;102214.05;;;18.11;45.24
70555;BME280;58104;52.744;15.242;2023-03-01T05:40:54;102214.49;;;18.14;45.26
70555;BME280;58104;52.744;15.242;2023-03-01T05:43:19;102214.12;;;18.13;45.33
70555;BME280;58104;52.744;15.242;2023-03-01T05:45:44;102214.90;;;18.10;45.34
70555;BME280;58104;52.744;15.242;2023-03-01T05:48:10;102219.86;;;18.11;45.46
70555;BME280;58104;52.744;15.242;2023-03-01T05:50:37;102218.45;;;18.11;45.43
70555;BME280;58104;52.744;15.242;2023-03-01T05:53:02;102223.74;;;18.06;45.53
70555;BME280;58104;52.744;15.242;2023-03-01T05:55:27;102223.53;;;18.11;45.60
70555;BME280;58104;52.744;15.242;2023-03-01T05:57:51;102226.77;;;18.09;45.66
70555;BME280;58104;52.744;15.242;2023-03-01T06:00:19;102233.47;;;18.10;45.66
70555;BME280;58104;52.744;15.242;2023-03-01T06:02:41;102240.47;;;18.10;45.97
70555;BME280;58104;52.744;15.242;2023-03-01T06:05:09;102243.71;;;18.20;46.04
70555;BME280;58104;52.744;15.242;2023-03-01T06:07:33;102244.15;;;18.35;46.19
70555;BME280;58104;52.744;15.242;2023-03-01T06:09:58;102242.13;;;18.48;46.30
70555;BME280;58104;52.744;15.242;2023-03-01T06:12:23;102237.69;;;18.49;46.27
70555;BME280;58104;52.744;15.242;2023-03-01T06:14:49;102236.97;;;18.47;44.96
70555;BME280;58104;52.744;15.242;2023-03-01T06:17:14;102237.46;;;18.56;44.77
70555;BME280;58104;52.744;15.242;2023-03-01T06:19:39;102242.30;;;18.46;44.71
70555;BME280;58104;52.744;15.242;2023-03-01T06:22:04;102237.77;;;18.44;44.71
70555;BME280;58104;52.744;15.242;2023-03-01T06:24:30;102237.23;;;18.41;44.82
70555;BME280;58104;52.744;15.242;2023-03-01T06:26:55;102233.14;;;17.84;39.54
70555;BME280;58104;52.744;15.242;2023-03-01T06:29:21;102227.31;;;17.33;37.93
70555;BME280;58104;52.744;15.242;2023-03-01T06:31:46;102229.02;;;17.08;37.63
70555;BME280;58104;52.744;15.242;2023-03-01T06:34:11;102225.69;;;16.67;35.95
70555;BME280;58104;52.744;15.242;2023-03-01T06:36:37;102227.52;;;16.35;35.95
70555;BME280;58104;52.744;15.242;2023-03-01T06:39:02;102225.46;;;16.22;35.38
70555;BME280;58104;52.744;15.242;2023-03-01T06:41:27;102224.00;;;16.77;38.04
70555;BME280;58104;52.744;15.242;2023-03-01T06:43:53;102222.32;;;17.38;37.32
70555;BME280;58104;52.744;15.242;2023-03-01T06:46:17;102224.51;;;17.78;37.26
70555;BME280;58104;52.744;15.242;2023-03-01T06:48:42;102226.37;;;17.87;37.30
70555;BME280;58104;52.744;15.242;2023-03-01T06:51:08;102225.83;;;18.05;37.34
70555;BME280;58104;52.744;15.242;2023-03-01T06:53:33;102223.36;;;18.09;37.42
70555;BME280;58104;52.744;15.242;2023-03-01T06:55:58;102215.63;;;18.17;37.44
70555;BME280;58104;52.744;15.242;2023-03-01T06:58:24;102216.70;;;18.21;37.53
70555;BME280;58104;52.744;15.242;2023-03-01T07:00:49;102213.58;;;18.29;37.54
70555;BME280;58104;52.744;15.242;2023-03-01T07:03:15;102213.48;;;18.42;37.72
70555;BME280;58104;52.744;15.242;2023-03-01T07:05:40;102218.87;;;18.37;37.80
70555;BME280;58104;52.744;15.242;2023-03-01T07:08:06;102216.85;;;18.55;37.69
70555;BME280;58104;52.744;15.242;2023-03-01T07:10:31;102212.70;;;18.59;37.67
70555;BME280;58104;52.744;15.242;2023-03-01T07:12:57;102218.02;;;18.58;37.65
70555;BME280;58104;52.744;15.242;2023-03-01T07:15:22;102222.75;;;18.55;37.62
70555;BME280;58104;52.744;15.242;2023-03-01T07:17:47;102219.53;;;18.70;37.57
70555;BME280;58104;52.744;15.242;2023-03-01T07:20:13;102216.13;;;18.74;37.54
70555;BME280;58104;52.744;15.242;2023-03-01T07:22:40;102212.55;;;18.79;37.52
70555;BME280;58104;52.744;15.242;2023-03-01T07:25:04;102214.76;;;18.82;37.47
70555;BME280;58104;52.744;15.242;2023-03-01T07:27:29;102216.34;;;18.88;37.35
70555;BME280;58104;52.744;15.242;2023-03-01T07:29:54;102219.74;;;18.88;37.33
70555;BME280;58104;52.744;15.242;2023-03-01T07:32:20;102220.13;;;18.96;37.34
70555;BME280;58104;52.744;15.242;2023-03-01T07:34:45;102213.28;;;19.04;37.27
70555;BME280;58104;52.744;15.242;2023-03-01T07:37:11;102215.55;;;19.10;37.30
70555;BME280;58104;52.744;15.242;2023-03-01T07:39:36;102215.15;;;19.10;37.16
70555;BME280;58104;52.744;15.242;2023-03-01T07:42:01;102216.43;;;19.22;37.09
70555;BME280;58104;52.744;15.242;2023-03-01T07:44:27;102218.53;;;19.24;37.09
70555;BME280;58104;52.744;15.242;2023-03-01T07:46:52;102219.31;;;19.30;37.03
70555;BME280;58104;52.744;15.242;2023-03-01T07:49:18;102214.24;;;19.54;37.46
70555;BME280;58104;52.744;15.242;2023-03-01T07:51:43;102212.57;;;19.52;37.96
70555;BME280;58104;52.744;15.242;2023-03-01T07:54:08;102214.91;;;19.47;37.95
70555;BME280;58104;52.744;15.242;2023-03-01T07:56:34;102211.74;;;19.52;38.14
70555;BME280;58104;52.744;15.242;2023-03-01T07:59:00;102216.59;;;19.48;38.69
70555;BME280;58104;52.744;15.242;2023-03-01T08:01:25;102218.24;;;19.51;39.05
70555;BME280;58104;52.744;15.242;2023-03-01T08:03:50;102218.98;;;19.63;39.19
70555;BME280;58104;52.744;15.242;2023-03-01T08:06:16;102219.68;;;19.71;39.29
70555;BME280;58104;52.744;15.242;2023-03-01T08:08:41;102218.46;;;19.80;39.37
70555;BME280;58104;52.744;15.242;2023-03-01T08:11:07;102214.03;;;19.76;39.34
70555;BME280;58104;52.744;15.242;2023-03-01T08:13:32;102218.72;;;19.86;39.59
70555;BME280;58104;52.744;15.242;2023-03-01T08:16:01;102220.24;;;19.87;39.81
70555;BME280;58104;52.744;15.242;2023-03-01T08:18:22;102222.52;;;19.92;39.84
70555;BME280;58104;52.744;15.242;2023-03-01T08:20:48;102223.99;;;19.97;39.79
70555;BME280;58104;52.744;15.242;2023-03-01T08:23:13;102224.27;;;19.95;40.19
70555;BME280;58104;52.744;15.242;2023-03-01T08:25:39;102222.63;;;19.99;40.41
70555;BME280;58104;52.744;15.242;2023-03-01T08:28:05;102218.65;;;19.99;40.18
70555;BME280;58104;52.744;15.242;2023-03-01T08:30:29;102217.37;;;19.95;39.96
70555;BME280;58104;52.744;15.242;2023-03-01T08:32:55;102215.55;;;20.01;39.96
70555;BME280;58104;52.744;15.242;2023-03-01T08:35:21;102212.59;;;20.03;40.15
70555;BME280;58104;52.744;15.242;2023-03-01T08:37:46;102213.48;;;20.13;40.13
70555;BME280;58104;52.744;15.242;2023-03-01T08:40:12;102217.00;;;20.16;40.35
70555;BME280;58104;52.744;15.242;2023-03-01T08:42:37;102218.67;;;20.13;40.43
70555;BME280;58104;52.744;15.242;2023-03-01T08:45:02;102220.26;;;20.21;40.43
70555;BME280;58104;52.744;15.242;2023-03-01T08:47:27;102218.97;;;20.23;40.25
70555;BME280;58104;52.744;15.242;2023-03-01T08:49:53;102216.93;;;20.25;40.37
70555;BME280;58104;52.744;15.242;2023-03-01T08:52:18;102213.15;;;20.17;40.47
70555;BME280;58104;52.744;15.242;2023-03-01T08:54:43;102212.16;;;20.36;40.28
70555;BME280;58104;52.744;15.242;2023-03-01T08:57:09;102206.11;;;20.46;39.80
70555;BME280;58104;52.744;15.242;2023-03-01T08:59:34;102204.11;;;20.53;39.63
70555;BME280;58104;52.744;15.242;2023-03-01T09:02:00;102203.37;;;20.57;39.73
70555;BME280;58104;52.744;15.242;2023-03-01T09:04:25;102198.95;;;20.57;39.82
70555;BME280;58104;52.744;15.242;2023-03-01T09:06:50;102200.46;;;20.63;39.73
70555;BME280;58104;52.744;15.242;2023-03-01T09:09:17;102192.42;;;20.80;39.34
70555;BME280;58104;52.744;15.242;2023-03-01T09:11:42;102191.62;;;20.77;39.45
70555;BME280;58104;52.744;15.242;2023-03-01T09:14:07;102190.19;;;20.81;39.47
70555;BME280;58104;52.744;15.242;2023-03-01T09:16:32;102189.35;;;20.81;39.55
70555;BME280;58104;52.744;15.242;2023-03-01T09:18:57;102187.18;;;20.77;39.59
70555;BME280;58104;52.744;15.242;2023-03-01T09:21:23;102184.43;;;20.84;39.59
70555;BME280;58104;52.744;15.242;2023-03-01T09:23:48;102187.69;;;20.84;39.58
70555;BME280;58104;52.744;15.242;2023-03-01T09:26:15;102187.93;;;20.75;39.47
70555;BME280;58104;52.744;15.242;2023-03-01T09:28:39;102189.70;;;20.63;39.35
70555;BME280;58104;52.744;15.242;2023-03-01T09:31:05;102193.10;;;20.66;39.33
70555;BME280;58104;52.744;15.242;2023-03-01T09:33:32;102193.13;;;20.75;39.19
70555;BME280;58104;52.744;15.242;2023-03-01T09:35:57;102186.83;;;20.90;39.16
70555;BME280;58104;52.744;15.242;2023-03-01T09:38:21;102184.48;;;20.84;39.26
70555;BME280;58104;52.744;15.242;2023-03-01T09:40:46;102180.02;;;20.98;39.46
70555;BME280;58104;52.744;15.242;2023-03-01T09:43:19;102181.42;;;21.31;38.45
70555;BME280;58104;52.744;15.242;2023-03-01T09:45:40;102182.23;;;21.72;37.46
70555;BME280;58104;52.744;15.242;2023-03-01T09:48:04;102186.35;;;21.99;36.77
70555;BME280;58104;52.744;15.242;2023-03-01T09:50:33;102183.05;;;21.68;33.83
70555;BME280;58104;52.744;15.242;2023-03-01T09:53:00;102180.48;;;21.75;32.87
70555;BME280;58104;52.744;15.242;2023-03-01T09:55:24;102180.22;;;21.62;31.53
70555;BME280;58104;52.744;15.242;2023-03-01T09:57:48;102181.54;;;21.60;31.04
70555;BME280;58104;52.744;15.242;2023-03-01T10:00:18;102185.42;;;21.63;30.65
70555;BME280;58104;52.744;15.242;2023-03-01T10:02:41;102185.82;;;21.70;30.24
70555;BME280;58104;52.744;15.242;2023-03-01T10:05:10;102184.86;;;21.63;29.14
70555;BME280;58104;52.744;15.242;2023-03-01T10:07:35;102182.09;;;21.30;29.50
70555;BME280;58104;52.744;15.242;2023-03-01T10:09:53;102179.36;;;21.20;28.97
70555;BME280;58104;52.744;15.242;2023-03-01T10:12:22;102178.19;;;21.27;31.73
70555;BME280;58104;52.744;15.242;2023-03-01T10:14:50;102179.56;;;21.86;31.39
70555;BME280;58104;52.744;15.242;2023-03-01T10:17:16;102178.87;;;22.13;31.48
70555;BME280;58104;52.744;15.242;2023-03-01T10:19:39;102176.09;;;22.33;31.54
70555;BME280;58104;52.744;15.242;2023-03-01T10:22:09;102172.88;;;22.37;31.74
70555;BME280;58104;52.744;15.242;2023-03-01T10:24:24;102168.55;;;22.44;32.02
70555;BME280;58104;52.744;15.242;2023-03-01T10:26:55;102167.20;;;22.42;32.26
70555;BME280;58104;52.744;15.242;2023-03-01T10:29:15;102165.70;;;22.54;32.45
70555;BME280;58104;52.744;15.242;2023-03-01T10:31:43;102163.73;;;22.43;32.82
70555;BME280;58104;52.744;15.242;2023-03-01T10:34:11;102167.69;;;22.54;33.10
70555;BME280;58104;52.744;15.242;2023-03-01T10:36:37;102164.08;;;22.41;32.91
70555;BME280;58104;52.744;15.242;2023-03-01T10:38:57;102163.23;;;22.30;31.40
70555;BME280;58104;52.744;15.242;2023-03-01T10:41:24;102164.36;;;22.20;32.21
70555;BME280;58104;52.744;15.242;2023-03-01T10:43:49;102165.26;;;22.10;32.08
70555;BME280;58104;52.744;15.242;2023-03-01T10:48:38;102167.51;;;22.21;31.66
70555;BME280;58104;52.744;15.242;2023-03-01T10:51:06;102167.72;;;22.21;31.69
70555;BME280;58104;52.744;15.242;2023-03-01T10:53:32;102167.54;;;22.26;31.74
70555;BME280;58104;52.744;15.242;2023-03-01T10:55:59;102164.77;;;22.17;31.58
70555;BME280;58104;52.744;15.242;2023-03-01T10:58:21;102166.49;;;22.21;31.86
70555;BME280;58104;52.744;15.242;2023-03-01T11:00:48;102161.89;;;21.98;32.39
70555;BME280;58104;52.744;15.242;2023-03-01T11:03:14;102156.49;;;22.56;31.79
70555;BME280;58104;52.744;15.242;2023-03-01T11:05:37;102148.77;;;22.59;30.98
70555;BME280;58104;52.744;15.242;2023-03-01T11:08:03;102144.62;;;22.56;31.20
70555;BME280;58104;52.744;15.242;2023-03-01T11:10:30;102146.25;;;22.44;31.10
70555;BME280;58104;52.744;15.242;2023-03-01T11:12:56;102145.56;;;22.57;30.87
70555;BME280;58104;52.744;15.242;2023-03-01T11:15:25;102140.90;;;22.62;30.42
70555;BME280;58104;52.744;15.242;2023-03-01T11:17:44;102139.85;;;22.66;30.86
70555;BME280;58104;52.744;15.242;2023-03-01T11:20:17;102139.71;;;22.74;30.73
70555;BME280;58104;52.744;15.242;2023-03-01T11:22:35;102131.21;;;22.83;31.32
70555;BME280;58104;52.744;15.242;2023-03-01T11:25:01;102122.91;;;22.80;31.64
70555;BME280;58104;52.744;15.242;2023-03-01T11:27:28;102123.98;;;22.75;31.97
70555;BME280;58104;52.744;15.242;2023-03-01T11:29:55;102120.25;;;22.74;32.37
70555;BME280;58104;52.744;15.242;2023-03-01T11:32:18;102124.47;;;22.78;32.59
70555;BME280;58104;52.744;15.242;2023-03-01T11:34:47;102124.23;;;22.84;32.87
70555;BME280;58104;52.744;15.242;2023-03-01T11:37:16;102129.41;;;22.92;33.25
70555;BME280;58104;52.744;15.242;2023-03-01T11:39:38;102128.38;;;22.87;33.61
70555;BME280;58104;52.744;15.242;2023-03-01T11:42:06;102125.89;;;22.82;33.97
70555;BME280;58104;52.744;15.242;2023-03-01T11:44:26;102122.62;;;22.49;30.49
70555;BME280;58104;52.744;15.242;2023-03-01T11:47:03;102118.25;;;22.60;31.95
70555;BME280;58104;52.744;15.242;2023-03-01T11:51:48;102116.81;;;22.69;30.72
70555;BME280;58104;52.744;15.242;2023-03-01T11:54:17;102114.42;;;22.83;30.44
70555;BME280;58104;52.744;15.242;2023-03-01T11:56:35;102114.75;;;22.79;30.23
70555;BME280;58104;52.744;15.242;2023-03-01T11:59:10;102110.67;;;22.80;30.10
70555;BME280;58104;52.744;15.242;2023-03-01T12:01:32;102106.37;;;22.74;30.37
70555;BME280;58104;52.744;15.242;2023-03-01T12:06:22;102105.09;;;22.72;30.37
70555;BME280;58104;52.744;15.242;2023-03-01T12:08:42;102101.55;;;22.30;26.60
70555;BME280;58104;52.744;15.242;2023-03-01T12:11:15;102098.37;;;22.39;28.92
70555;BME280;58104;52.744;15.242;2023-03-01T12:18:33;102093.32;;;22.75;30.26
70555;BME280;58104;52.744;15.242;2023-03-01T12:20:53;102092.03;;;22.85;30.59
70555;BME280;58104;52.744;15.242;2023-03-01T12:23:21;102089.56;;;22.92;30.87
70555;BME280;58104;52.744;15.242;2023-03-01T12:25:39;102083.20;;;23.00;31.13
70555;BME280;58104;52.744;15.242;2023-03-01T12:28:15;102079.80;;;23.03;31.35
70555;BME280;58104;52.744;15.242;2023-03-01T12:30:38;102074.31;;;23.07;31.60
70555;BME280;58104;52.744;15.242;2023-03-01T12:33:02;102068.76;;;23.12;31.77
70555;BME280;58104;52.744;15.242;2023-03-01T12:35:30;102063.04;;;23.17;32.00
70555;BME280;58104;52.744;15.242;2023-03-01T12:37:54;102053.89;;;23.20;32.18
70555;BME280;58104;52.744;15.242;2023-03-01T12:40:21;102049.72;;;23.19;32.33
70555;BME280;58104;52.744;15.242;2023-03-01T12:42:39;102051.51;;;23.15;32.63